Time;durP1;ratioP1;P1;durP2;ratioP2;P2;SDS_P1;SDS_P2;PMS_P1;PMS_P2;Temp;Humidity;BMP_temperature;BMP_pressure;BME280_temperature;BME280_humidity;BME280_pressure;Samples;Min_cycle;Max_cycle;Signal;HPM_P1;HPM_P2
2021/01/29 00:01:38;;;;;;;;;;;1.30;99.90;;;;;;4970218;28;20375;-82
2021/01/29 00:04:04;;;;;;;;;;;1.20;99.90;;;;;;4959573;28;19923;-82
2021/01/29 00:06:30;;;;;;;;;;;1.20;99.90;;;;;;4952301;29;19914;-82
2021/01/29 00:08:56;;;;;;;;;;;1.20;99.90;;;;;;4971593;28;19910;-82
2021/01/29 00:11:21;;;;;;;;;;;1.20;99.90;;;;;;4959626;28;20009;-81
2021/01/29 00:13:47;;;;;;;;;;;1.20;99.90;;;;;;4950626;28;19926;-82
2021/01/29 00:16:12;;;;;;;;;;;1.20;99.90;;;;;;4952892;28;19914;-82
2021/01/29 00:18:38;;;;;;;;;;;1.20;99.90;;;;;;4950725;29;20427;-82
2021/01/29 00:21:03;;;;;;;;;;;1.10;99.90;;;;;;4969133;28;19914;-82
2021/01/29 00:23:29;;;;;;;;;;;1.10;99.90;;;;;;4981799;28;19914;-82
2021/01/29 00:25:54;;;;;;;;;;;1.10;99.90;;;;;;5006111;28;19917;-82
2021/01/29 00:28:21;;;;;;;;;;;1.10;99.90;;;;;;4991742;28;19943;-82
2021/01/29 00:30:46;;;;;;;;;;;1.10;99.90;;;;;;4996224;28;19913;-82
2021/01/29 00:33:13;;;;;;;;;;;1.10;99.90;;;;;;4995309;28;19917;-82
2021/01/29 00:35:39;;;;;;;;;;;1.10;99.90;;;;;;5000724;28;19938;-84
2021/01/29 00:38:05;;;;;;;;;;;1.10;99.90;;;;;;4994881;28;19917;-82
2021/01/29 00:40:31;;;;;;;;;;;1.10;99.90;;;;;;4979893;28;19960;-82
2021/01/29 00:42:56;;;;;;;;;;;1.10;99.90;;;;;;4978820;28;19914;-83
2021/01/29 00:45:24;;;;;;;;;;;1.10;99.90;;;;;;4984169;28;20378;-83
2021/01/29 00:47:50;;;;;;;;;;;1.10;99.90;;;;;;4976224;28;19937;-83
2021/01/29 00:50:16;;;;;;;;;;;1.10;99.90;;;;;;5000993;28;19914;-82
2021/01/29 00:52:41;;;;;;;;;;;1.10;99.90;;;;;;4975400;28;19929;-82
2021/01/29 00:55:08;;;;;;;;;;;1.10;99.90;;;;;;5003258;28;19914;-82
2021/01/29 00:57:33;;;;;;;;;;;1.10;99.90;;;;;;4997739;28;20003;-82
2021/01/29 00:59:59;;;;;;;;;;;1.00;99.90;;;;;;4994224;28;20374;-83
2021/01/29 01:02:24;;;;;;;;;;;1.10;99.90;;;;;;5015337;28;19952;-82
2021/01/29 01:04:50;;;;;;;;;;;1.10;99.90;;;;;;4986029;28;19914;-82
2021/01/29 01:07:16;;;;;;;;;;;1.00;99.90;;;;;;4993949;28;20140;-82
2021/01/29 01:09:41;;;;;;;;;;;1.00;99.90;;;;;;5006374;28;19971;-82
2021/01/29 01:12:07;;;;;;;;;;;1.10;99.90;;;;;;4990303;28;19910;-83
2021/01/29 01:14:33;;;;;;;;;;;1.00;99.90;;;;;;4994105;28;19918;-82
2021/01/29 01:16:59;;;;;;;;;;;1.00;99.90;;;;;;4978999;28;20355;-82
2021/01/29 01:19:24;;;;;;;;;;;1.10;99.90;;;;;;4985249;28;20334;-82
2021/01/29 01:21:50;;;;;;;;;;;1.10;99.90;;;;;;5010570;28;19913;-82
2021/01/29 01:24:15;;;;;;;;;;;1.10;99.90;;;;;;4984644;28;20005;-82
2021/01/29 01:26:41;;;;;;;;;;;1.10;99.90;;;;;;4974085;28;19933;-82
2021/01/29 01:29:07;;;;;;;;;;;1.10;99.90;;;;;;4967424;28;19961;-82
2021/01/29 01:31:32;;;;;;;;;;;1.10;99.90;;;;;;4993271;28;20329;-83
2021/01/29 01:33:57;;;;;;;;;;;1.10;99.90;;;;;;4984803;28;19918;-82
2021/01/29 01:36:23;;;;;;;;;;;1.10;99.90;;;;;;4991232;28;19920;-82
2021/01/29 01:38:48;;;;;;;;;;;1.10;99.90;;;;;;4986111;28;19921;-82
2021/01/29 01:41:14;;;;;;;;;;;1.10;99.90;;;;;;4964679;28;20005;-82
2021/01/29 01:43:39;;;;;;;;;;;1.10;99.90;;;;;;4949837;28;19925;-82
2021/01/29 01:46:09;;;;;;;;;;;1.10;99.90;;;;;;4968625;28;19919;-82
2021/01/29 01:48:35;;;;;;;;;;;1.20;99.90;;;;;;4946752;29;19915;-83
2021/01/29 01:51:01;;;;;;;;;;;1.20;99.90;;;;;;4934518;28;19932;-82
2021/01/29 01:53:33;;;;;;;;;;;1.20;99.90;;;;;;4934968;28;19915;-82
2021/01/29 01:56:16;;;;;;;;;;;1.20;99.90;;;;;;4959979;28;19945;-84
2021/01/29 01:58:43;;;;;;;;;;;1.30;99.90;;;;;;4953603;28;20440;-83
2021/01/29 02:01:09;;;;;;;;;;;1.20;99.90;;;;;;4979303;28;19949;-82
2021/01/29 02:03:34;;;;;;;;;;;1.20;99.90;;;;;;4957417;28;19915;-83
2021/01/29 02:06:01;;;;;;;;;;;1.20;99.90;;;;;;4974790;28;19918;-82
2021/01/29 02:08:27;;;;;;;;;;;1.20;99.90;;;;;;4963288;28;19929;-83
2021/01/29 02:10:53;;;;;;;;;;;1.10;99.90;;;;;;4943249;28;19915;-82
2021/01/29 02:13:18;;;;;;;;;;;1.10;99.90;;;;;;4985016;28;19923;-83
2021/01/29 02:15:47;;;;;;;;;;;1.20;99.90;;;;;;4989703;28;19946;-82
2021/01/29 02:18:16;;;;;;;;;;;1.10;99.90;;;;;;4974173;28;19956;-82
2021/01/29 02:21:00;;;;;;;;;;;1.20;99.90;;;;;;4983131;28;20012;-82
2021/01/29 02:23:28;;;;;;;;;;;1.20;99.90;;;;;;4981070;28;19913;-83
2021/01/29 02:26:13;;;;;;;;;;;1.20;99.90;;;;;;5001118;28;19936;-83
2021/01/29 02:28:51;;;;;;;;;;;1.20;99.90;;;;;;4994623;28;19957;-82
2021/01/29 02:31:25;;;;;;;;;;;1.10;99.90;;;;;;4993762;28;19921;-82
2021/01/29 02:33:51;;;;;;;;;;;1.10;99.90;;;;;;5012993;28;19949;-82
2021/01/29 02:36:37;;;;;;;;;;;1.10;99.90;;;;;;5015317;28;19992;-83
2021/01/29 02:39:20;;;;;;;;;;;1.10;99.90;;;;;;4975209;28;20281;-82
2021/01/29 02:41:55;;;;;;;;;;;1.10;99.90;;;;;;4973633;28;19914;-82
2021/01/29 02:44:39;;;;;;;;;;;1.10;99.90;;;;;;5001492;28;19928;-82
2021/01/29 02:47:08;;;;;;;;;;;1.10;99.90;;;;;;4992083;28;19922;-82
2021/01/29 02:49:49;;;;;;;;;;;1.20;99.90;;;;;;4986582;28;20358;-83
2021/01/29 02:52:21;;;;;;;;;;;1.10;99.90;;;;;;5013441;28;19918;-82
2021/01/29 02:54:51;;;;;;;;;;;1.00;99.90;;;;;;5006433;28;19921;-82
2021/01/29 02:57:29;;;;;;;;;;;1.10;99.90;;;;;;4989210;28;20436;-82
2021/01/29 03:00:07;;;;;;;;;;;1.00;99.90;;;;;;4978197;28;19993;-83
2021/01/29 03:02:46;;;;;;;;;;;1.10;99.90;;;;;;4973415;28;19969;-82
2021/01/29 03:05:23;;;;;;;;;;;1.10;99.90;;;;;;4982673;28;19918;-82
2021/01/29 03:08:02;;;;;;;;;;;1.10;99.90;;;;;;4975127;28;19921;-82
2021/01/29 03:10:50;;;;;;;;;;;1.10;99.90;;;;;;5000763;28;20000;-82
2021/01/29 03:13:21;;;;;;;;;;;1.10;99.90;;;;;;4983913;28;20012;-82
2021/01/29 03:15:56;;;;;;;;;;;1.10;99.90;;;;;;4984637;28;19927;-83
2021/01/29 03:18:27;;;;;;;;;;;1.10;99.90;;;;;;4976608;28;20291;-82
2021/01/29 03:20:56;;;;;;;;;;;1.10;99.90;;;;;;4978984;28;19914;-82
2021/01/29 03:23:37;;;;;;;;;;;1.00;99.90;;;;;;4983985;28;19918;-82
2021/01/29 03:26:06;;;;;;;;;;;1.00;99.90;;;;;;4976886;28;19957;-82
2021/01/29 03:28:36;;;;;;;;;;;1.00;99.90;;;;;;4977581;28;19965;-82
2021/01/29 03:31:03;;;;;;;;;;;0.90;99.90;;;;;;4974287;28;19953;-82
2021/01/29 03:33:30;;;;;;;;;;;1.00;99.90;;;;;;4995776;28;20445;-82
2021/01/29 03:36:00;;;;;;;;;;;1.00;99.90;;;;;;4989430;28;19914;-83
2021/01/29 03:38:26;;;;;;;;;;;1.10;99.90;;;;;;5019219;28;20012;-82
2021/01/29 03:41:04;;;;;;;;;;;1.10;99.90;;;;;;5010113;28;19942;-83
2021/01/29 03:43:33;;;;;;;;;;;1.10;99.90;;;;;;5031967;28;19941;-82
2021/01/29 03:46:11;;;;;;;;;;;1.00;99.90;;;;;;5007247;28;20400;-83
2021/01/29 03:48:55;;;;;;;;;;;1.10;99.90;;;;;;4991349;28;19922;-83
2021/01/29 03:51:28;;;;;;;;;;;1.10;99.90;;;;;;4976672;28;19956;-82
2021/01/29 03:53:58;;;;;;;;;;;1.20;99.90;;;;;;4981620;28;19914;-82
2021/01/29 03:56:33;;;;;;;;;;;1.20;99.90;;;;;;4985025;28;19917;-83
2021/01/29 03:58:58;;;;;;;;;;;1.20;99.90;;;;;;4988325;28;19913;-82
2021/01/29 04:01:49;;;;;;;;;;;1.20;99.90;;;;;;4976202;28;19921;-82
2021/01/29 04:04:21;;;;;;;;;;;1.20;99.90;;;;;;4906322;29;19927;-82
2021/01/29 04:06:54;;;;;;;;;;;1.20;99.90;;;;;;4898688;29;20369;-82
2021/01/29 04:09:34;;;;;;;;;;;1.20;99.90;;;;;;4914042;29;20438;-82
2021/01/29 04:12:01;;;;;;;;;;;1.20;99.90;;;;;;4899662;29;19922;-83
2021/01/29 04:14:36;;;;;;;;;;;1.20;99.90;;;;;;4898728;29;20465;-82
2021/01/29 04:17:04;;;;;;;;;;;1.20;99.90;;;;;;4895611;29;20420;-83
2021/01/29 04:19:32;;;;;;;;;;;1.20;99.90;;;;;;4898593;29;19958;-82
2021/01/29 04:22:21;;;;;;;;;;;1.20;99.90;;;;;;4921696;29;19915;-83
2021/01/29 04:25:09;;;;;;;;;;;1.30;99.90;;;;;;4924041;29;19967;-82
2021/01/29 04:27:37;;;;;;;;;;;1.20;99.90;;;;;;4894655;29;19935;-82
2021/01/29 04:30:06;;;;;;;;;;;1.30;99.90;;;;;;4910110;29;19911;-83
2021/01/29 04:32:34;;;;;;;;;;;1.30;99.90;;;;;;4897816;29;19929;-82
2021/01/29 04:35:00;;;;;;;;;;;1.30;99.90;;;;;;4898068;29;19922;-83
2021/01/29 04:37:29;;;;;;;;;;;1.30;99.90;;;;;;4913333;29;20014;-83
2021/01/29 04:39:57;;;;;;;;;;;1.30;99.90;;;;;;4913812;29;20046;-83
2021/01/29 04:42:35;;;;;;;;;;;1.40;99.90;;;;;;4957764;28;19925;-82
2021/01/29 04:45:13;;;;;;;;;;;1.30;99.90;;;;;;4975187;28;19922;-83
2021/01/29 04:47:41;;;;;;;;;;;1.40;99.90;;;;;;4972343;28;19979;-82
2021/01/29 04:50:29;;;;;;;;;;;1.40;99.90;;;;;;4981780;28;20382;-82
2021/01/29 04:53:14;;;;;;;;;;;1.40;99.90;;;;;;4992348;28;19914;-82
2021/01/29 04:55:48;;;;;;;;;;;1.40;99.90;;;;;;4974359;28;20268;-83
2021/01/29 04:58:14;;;;;;;;;;;1.40;99.90;;;;;;4982598;28;19992;-83
2021/01/29 05:00:59;;;;;;;;;;;1.40;99.90;;;;;;4980489;28;20439;-83
2021/01/29 05:03:57;;;;;;;;;;;1.50;99.90;;;;;;4981682;28;19921;-82
2021/01/29 05:06:46;;;;;;;;;;;1.50;99.90;;;;;;4900145;29;19943;-83
2021/01/29 05:09:35;;;;;;;;;;;1.40;99.90;;;;;;4887500;29;19924;-82
2021/01/29 05:12:11;;;;;;;;;;;1.40;99.90;;;;;;4817994;29;19925;-82
2021/01/29 05:14:51;;;;;;;;;;;1.40;99.90;;;;;;4818715;29;19920;-82
2021/01/29 05:17:17;;;;;;;;;;;1.40;99.90;;;;;;4817664;29;19924;-82
2021/01/29 05:19:56;;;;;;;;;;;1.40;99.90;;;;;;4825375;29;20461;-82
2021/01/29 05:22:31;;;;;;;;;;;1.40;99.90;;;;;;4826474;29;20411;-82
2021/01/29 05:25:15;;;;;;;;;;;1.50;99.90;;;;;;4824278;29;20008;-82
2021/01/29 05:27:43;;;;;;;;;;;1.30;99.90;;;;;;4821607;29;19924;-82
2021/01/29 05:30:08;;;;;;;;;;;1.40;99.90;;;;;;4817911;29;20000;-82
2021/01/29 05:32:58;;;;;;;;;;;1.40;99.90;;;;;;4828858;29;19966;-82
2021/01/29 05:35:26;;;;;;;;;;;1.30;99.90;;;;;;4817335;29;19917;-82
2021/01/29 05:38:08;;;;;;;;;;;1.30;99.90;;;;;;4828168;29;19917;-82
2021/01/29 05:40:34;;;;;;;;;;;1.20;99.90;;;;;;4799097;29;19917;-82
2021/01/29 05:43:18;;;;;;;;;;;1.30;99.90;;;;;;4815237;29;19917;-82
2021/01/29 05:45:59;;;;;;;;;;;1.20;99.90;;;;;;4825410;29;19964;-82
2021/01/29 05:48:43;;;;;;;;;;;1.30;99.90;;;;;;4877275;29;20376;-83
2021/01/29 05:51:14;;;;;;;;;;;1.20;99.90;;;;;;4931640;29;20005;-82
2021/01/29 05:54:09;;;;;;;;;;;1.20;99.90;;;;;;4927064;29;19915;-82
2021/01/29 05:56:54;;;;;;;;;;;1.20;99.90;;;;;;4918792;29;19997;-81
2021/01/29 05:59:26;;;;;;;;;;;1.10;99.90;;;;;;4939838;29;20338;-82
2021/01/29 06:02:02;;;;;;;;;;;1.10;99.90;;;;;;4916927;29;19981;-82
2021/01/29 06:04:36;;;;;;;;;;;1.00;99.90;;;;;;4916070;29;19923;-81
2021/01/29 06:07:04;;;;;;;;;;;0.80;99.90;;;;;;4931778;29;19933;-81
2021/01/29 06:09:48;;;;;;;;;;;0.80;99.90;;;;;;4939161;29;20010;-81
2021/01/29 06:12:14;;;;;;;;;;;0.80;99.90;;;;;;4928950;29;19919;-82
2021/01/29 06:14:52;;;;;;;;;;;0.90;99.90;;;;;;4915687;29;20018;-82
2021/01/29 06:17:36;;;;;;;;;;;0.90;99.90;;;;;;4924713;28;20347;-81
2021/01/29 06:20:02;;;;;;;;;;;0.90;99.90;;;;;;4980977;28;19965;-81
2021/01/29 06:22:46;;;;;;;;;;;0.90;99.90;;;;;;4977837;28;20338;-82
2021/01/29 06:25:20;;;;;;;;;;;0.90;99.90;;;;;;4990784;28;19968;-82
2021/01/29 06:28:14;;;;;;;;;;;0.90;99.90;;;;;;4982070;28;19968;-82
2021/01/29 06:30:59;;;;;;;;;;;0.90;99.90;;;;;;4967648;28;19914;-82
2021/01/29 06:33:43;;;;;;;;;;;0.90;99.90;;;;;;4972091;28;19921;-82
2021/01/29 06:36:12;;;;;;;;;;;0.90;99.90;;;;;;4980009;28;19913;-82
2021/01/29 06:38:48;;;;;;;;;;;0.90;99.90;;;;;;4984471;28;19935;-81
2021/01/29 06:41:32;;;;;;;;;;;0.90;99.90;;;;;;4980918;28;19918;-82
2021/01/29 06:44:07;;;;;;;;;;;0.90;99.90;;;;;;4978030;28;19921;-82
2021/01/29 06:46:39;;;;;;;;;;;0.90;99.90;;;;;;4977811;28;20278;-81
2021/01/29 06:49:30;;;;;;;;;;;0.80;99.90;;;;;;4981453;28;20341;-81
2021/01/29 06:52:02;;;;;;;;;;;0.90;99.90;;;;;;4981996;28;19917;-82
2021/01/29 06:54:46;;;;;;;;;;;0.90;99.90;;;;;;4981518;28;19924;-82
2021/01/29 06:57:22;;;;;;;;;;;0.90;99.90;;;;;;4975165;28;19934;-82
2021/01/29 06:59:57;;;;;;;;;;;0.90;99.90;;;;;;4979235;28;19914;-81
2021/01/29 07:02:42;;;;;;;;;;;1.00;99.90;;;;;;4982373;28;20028;-82
2021/01/29 07:05:23;;;;;;;;;;;0.90;99.90;;;;;;4978626;28;19914;-81
2021/01/29 07:07:57;;;;;;;;;;;0.90;99.90;;;;;;4979042;28;19957;-81
2021/01/29 07:10:29;;;;;;;;;;;0.80;99.90;;;;;;4975830;28;19938;-82
2021/01/29 07:13:17;;;;;;;;;;;0.80;99.90;;;;;;4998630;28;19984;-81
2021/01/29 07:15:42;;;;;;;;;;;0.80;99.90;;;;;;4985459;28;19941;-82
2021/01/29 07:18:27;;;;;;;;;;;0.80;99.90;;;;;;4981486;28;19913;-81
2021/01/29 07:21:01;;;;;;;;;;;0.90;99.90;;;;;;4980766;28;19921;-82
2021/01/29 07:23:40;;;;;;;;;;;0.90;99.90;;;;;;4990353;28;19914;-82
2021/01/29 07:26:24;;;;;;;;;;;0.90;99.90;;;;;;4981093;28;20399;-81
2021/01/29 07:29:08;;;;;;;;;;;0.90;99.90;;;;;;4988074;28;20016;-82
2021/01/29 07:31:55;;;;;;;;;;;0.90;99.90;;;;;;4974222;28;19975;-81
2021/01/29 07:34:29;;;;;;;;;;;0.90;99.90;;;;;;4978844;28;19941;-81
2021/01/29 07:37:08;;;;;;;;;;;0.80;99.90;;;;;;4975633;28;19993;-81
2021/01/29 07:39:49;;;;;;;;;;;0.90;99.90;;;;;;4973621;28;19921;-81
2021/01/29 07:42:45;;;;;;;;;;;1.00;99.90;;;;;;4989124;28;20314;-81
2021/01/29 07:45:17;;;;;;;;;;;1.00;99.90;;;;;;4892869;29;19916;-82
2021/01/29 07:47:59;;;;;;;;;;;1.00;99.90;;;;;;4878110;29;19927;-81
2021/01/29 07:50:29;;;;;;;;;;;1.00;99.90;;;;;;4878653;29;19953;-81
2021/01/29 07:53:14;;;;;;;;;;;0.90;99.90;;;;;;4894714;29;19916;-83
2021/01/29 07:55:54;;;;;;;;;;;1.00;99.90;;;;;;4890722;29;19919;-83
2021/01/29 07:58:30;;;;;;;;;;;0.90;99.90;;;;;;4879428;29;19916;-83
2021/01/29 08:01:05;;;;;;;;;;;0.90;99.90;;;;;;4877595;29;19923;-83
2021/01/29 08:03:39;;;;;;;;;;;0.90;99.90;;;;;;4897986;29;19923;-82
2021/01/29 08:06:15;;;;;;;;;;;0.90;99.90;;;;;;4901792;29;19919;-82
2021/01/29 08:08:47;;;;;;;;;;;1.00;99.90;;;;;;4884253;29;20522;-82
2021/01/29 08:11:16;;;;;;;;;;;0.90;99.90;;;;;;4883328;29;19915;-82
2021/01/29 08:13:59;;;;;;;;;;;0.90;99.90;;;;;;4884993;29;19943;-82
2021/01/29 08:16:57;;;;;;;;;;;0.90;99.90;;;;;;4894355;29;20369;-82
2021/01/29 08:19:44;;;;;;;;;;;0.90;99.90;;;;;;4877070;29;19923;-83
2021/01/29 08:22:09;;;;;;;;;;;0.90;99.90;;;;;;4919901;29;19914;-83
2021/01/29 08:24:53;;;;;;;;;;;0.90;99.90;;;;;;4929783;29;20281;-83
2021/01/29 08:27:19;;;;;;;;;;;1.00;99.90;;;;;;4943023;29;20360;-83
2021/01/29 08:29:53;;;;;;;;;;;0.90;99.90;;;;;;4919467;29;20079;-83
2021/01/29 08:32:41;;;;;;;;;;;0.90;99.90;;;;;;4924047;29;19926;-83
2021/01/29 08:35:20;;;;;;;;;;;0.80;99.90;;;;;;4944248;29;19915;-83
2021/01/29 08:38:04;;;;;;;;;;;0.80;99.90;;;;;;4946408;29;20002;-83
2021/01/29 08:40:30;;;;;;;;;;;0.80;99.90;;;;;;4947659;29;19914;-82
2021/01/29 08:43:13;;;;;;;;;;;0.80;99.90;;;;;;4932862;29;19922;-82
2021/01/29 08:45:42;;;;;;;;;;;0.80;99.90;;;;;;4931667;29;19957;-83
2021/01/29 08:48:23;;;;;;;;;;;0.80;99.90;;;;;;4931309;29;20229;-83
2021/01/29 08:51:00;;;;;;;;;;;0.80;99.90;;;;;;4953934;29;19914;-83
2021/01/29 08:53:46;;;;;;;;;;;0.80;99.90;;;;;;4933661;29;19923;-83
2021/01/29 08:56:14;;;;;;;;;;;0.80;99.90;;;;;;4992966;28;19959;-83
2021/01/29 08:58:49;;;;;;;;;;;0.90;99.90;;;;;;4989616;28;19985;-83
2021/01/29 09:01:21;;;;;;;;;;;0.80;99.90;;;;;;4983799;28;19914;-83
2021/01/29 09:03:53;;;;;;;;;;;0.80;99.90;;;;;;4987935;28;19976;-83
2021/01/29 09:06:20;;;;;;;;;;;0.80;99.90;;;;;;4977170;28;19944;-83
2021/01/29 09:08:55;;;;;;;;;;;0.80;99.90;;;;;;4990704;28;19922;-84
2021/01/29 09:11:24;;;;;;;;;;;0.80;99.90;;;;;;4970349;28;20015;-84
2021/01/29 09:13:55;;;;;;;;;;;0.80;99.90;;;;;;4945221;29;19914;-83
2021/01/29 09:16:28;;;;;;;;;;;0.80;99.90;;;;;;4949463;28;19914;-83
2021/01/29 09:19:00;;;;;;;;;;;0.80;99.90;;;;;;4932301;29;19940;-83
2021/01/29 09:21:28;;;;;;;;;;;0.80;99.90;;;;;;4925549;29;19941;-83
2021/01/29 09:24:29;;;;;;;;;;;0.80;99.90;;;;;;4947484;28;20306;-81
2021/01/29 09:27:15;;;;;;;;;;;0.80;99.90;;;;;;4887473;29;19976;-83
2021/01/29 09:29:51;;;;;;;;;;;0.90;99.90;;;;;;4881687;29;19962;-83
2021/01/29 09:32:19;;;;;;;;;;;0.90;99.90;;;;;;4892413;29;19922;-83
2021/01/29 09:34:48;;;;;;;;;;;0.90;99.90;;;;;;4907108;29;19927;-83
2021/01/29 09:37:17;;;;;;;;;;;0.90;99.90;;;;;;4906734;29;19927;-83
2021/01/29 09:39:56;;;;;;;;;;;0.90;99.90;;;;;;4913259;29;19908;-82
2021/01/29 09:42:25;;;;;;;;;;;0.90;99.90;;;;;;4892137;29;19994;-82
2021/01/29 09:45:01;;;;;;;;;;;0.90;99.90;;;;;;4923664;29;19915;-82
2021/01/29 09:47:28;;;;;;;;;;;0.80;99.90;;;;;;4932027;29;19950;-83
2021/01/29 09:50:01;;;;;;;;;;;0.90;99.90;;;;;;4910645;29;19919;-83
2021/01/29 09:52:37;;;;;;;;;;;0.90;99.90;;;;;;4897805;29;20372;-81
2021/01/29 09:55:09;;;;;;;;;;;0.90;99.90;;;;;;4897703;29;19978;-83
2021/01/29 09:57:41;;;;;;;;;;;0.90;99.90;;;;;;4912011;29;20423;-82
2021/01/29 10:00:18;;;;;;;;;;;0.90;99.90;;;;;;4925698;28;19945;-82
2021/01/29 10:03:03;;;;;;;;;;;0.90;99.90;;;;;;4973741;28;20342;-83
2021/01/29 10:05:37;;;;;;;;;;;0.90;99.90;;;;;;4973319;28;19921;-83
2021/01/29 10:08:05;;;;;;;;;;;0.90;99.90;;;;;;4971640;28;19934;-83
2021/01/29 10:10:36;;;;;;;;;;;0.90;99.90;;;;;;4972066;28;20108;-83
2021/01/29 10:13:14;;;;;;;;;;;0.90;99.90;;;;;;4988969;28;19942;-82
2021/01/29 10:15:41;;;;;;;;;;;0.90;99.90;;;;;;4970000;28;19964;-83
2021/01/29 10:18:12;;;;;;;;;;;0.80;99.90;;;;;;4978005;28;19921;-82
2021/01/29 10:20:39;;;;;;;;;;;0.90;99.90;;;;;;4994867;28;19929;-83
2021/01/29 10:23:15;;;;;;;;;;;0.90;99.90;;;;;;4973044;28;19948;-83
2021/01/29 10:25:56;;;;;;;;;;;0.90;99.90;;;;;;4984220;28;20334;-83
2021/01/29 10:28:40;;;;;;;;;;;0.90;99.90;;;;;;4990489;28;19933;-83
2021/01/29 10:31:07;;;;;;;;;;;0.90;99.90;;;;;;4971493;28;19922;-83
2021/01/29 10:33:34;;;;;;;;;;;0.90;99.90;;;;;;4974384;28;19932;-83
2021/01/29 10:36:12;;;;;;;;;;;0.90;99.90;;;;;;4974482;28;20398;-83
2021/01/29 10:38:57;;;;;;;;;;;0.90;99.90;;;;;;4977360;28;19977;-82
2021/01/29 10:41:25;;;;;;;;;;;0.90;99.90;;;;;;4995922;28;19918;-82
2021/01/29 10:44:02;;;;;;;;;;;0.90;99.90;;;;;;4965084;28;20088;-82
2021/01/29 10:46:30;;;;;;;;;;;0.90;99.90;;;;;;4946747;28;19914;-82
2021/01/29 10:49:12;;;;;;;;;;;0.90;99.90;;;;;;4947563;28;19926;-81
2021/01/29 10:51:48;;;;;;;;;;;0.90;99.90;;;;;;4945542;28;19929;-82
2021/01/29 10:54:16;;;;;;;;;;;0.90;99.90;;;;;;4962578;28;19922;-82
2021/01/29 10:56:46;;;;;;;;;;;0.90;99.90;;;;;;4945175;28;19931;-82
2021/01/29 10:59:12;;;;;;;;;;;0.90;99.90;;;;;;4941359;28;19969;-83
2021/01/29 11:02:01;;;;;;;;;;;1.00;99.90;;;;;;4942197;28;20000;-82
2021/01/29 11:04:35;;;;;;;;;;;0.90;99.90;;;;;;4866099;29;20333;-82
2021/01/29 11:07:06;;;;;;;;;;;1.00;99.90;;;;;;4873070;29;20107;-83
2021/01/29 11:09:36;;;;;;;;;;;0.90;99.90;;;;;;4871361;29;20390;-82
2021/01/29 11:12:07;;;;;;;;;;;0.90;99.90;;;;;;4880057;29;19930;-84
2021/01/29 11:14:35;;;;;;;;;;;1.00;99.90;;;;;;4878253;29;19937;-84
2021/01/29 11:17:03;;;;;;;;;;;0.90;99.90;;;;;;4902259;29;19924;-84
2021/01/29 11:19:34;;;;;;;;;;;1.00;99.90;;;;;;4896251;29;19915;-85
2021/01/29 11:22:11;;;;;;;;;;;1.00;99.90;;;;;;4889571;29;19975;-84
2021/01/29 11:24:40;;;;;;;;;;;1.00;99.90;;;;;;4891177;29;19922;-84
2021/01/29 11:27:08;;;;;;;;;;;0.90;99.90;;;;;;4898549;29;20082;-83
2021/01/29 11:29:51;;;;;;;;;;;0.90;99.90;;;;;;4896581;29;19974;-83
2021/01/29 11:32:22;;;;;;;;;;;0.90;99.90;;;;;;4897210;29;19927;-82
2021/01/29 11:34:53;;;;;;;;;;;1.00;99.90;;;;;;4898756;29;20283;-82
2021/01/29 11:37:23;;;;;;;;;;;1.00;99.90;;;;;;4908874;29;19955;-81
2021/01/29 11:39:51;;;;;;;;;;;1.00;99.90;;;;;;4861947;29;19925;-82
2021/01/29 11:42:35;;;;;;;;;;;0.90;99.90;;;;;;4925609;29;19989;-83
2021/01/29 11:45:20;;;;;;;;;;;0.90;99.90;;;;;;4933966;29;19915;-82
2021/01/29 11:47:48;;;;;;;;;;;0.90;99.90;;;;;;4965199;28;19926;-82
2021/01/29 11:50:41;;;;;;;;;;;0.80;99.90;;;;;;4964527;28;19925;-82
2021/01/29 11:53:25;;;;;;;;;;;0.80;99.90;;;;;;4917679;29;19923;-83
2021/01/29 11:55:53;;;;;;;;;;;0.80;99.90;;;;;;4913348;29;19919;-82
2021/01/29 11:58:33;;;;;;;;;;;0.70;99.90;;;;;;4900922;29;20416;-82
2021/01/29 12:00:59;;;;;;;;;;;0.70;99.90;;;;;;4916621;29;20665;-82
2021/01/29 12:03:47;;;;;;;;;;;0.60;99.90;;;;;;4925778;29;20021;-83
2021/01/29 12:06:21;;;;;;;;;;;0.60;99.90;;;;;;4928286;29;20384;-83
2021/01/29 12:08:49;;;;;;;;;;;0.70;99.90;;;;;;4914038;29;20303;-83
2021/01/29 12:11:24;;;;;;;;;;;0.60;99.90;;;;;;4928308;29;19965;-82
2021/01/29 12:14:12;;;;;;;;;;;0.60;99.90;;;;;;4930014;29;20276;-84
2021/01/29 12:16:38;;;;;;;;;;;0.70;99.90;;;;;;4927401;29;20079;-82
2021/01/29 12:19:04;;;;;;;;;;;0.60;99.90;;;;;;4914146;29;20031;-82
2021/01/29 12:21:35;;;;;;;;;;;0.70;99.90;;;;;;4931773;29;20407;-82
2021/01/29 12:24:02;;;;;;;;;;;0.70;99.90;;;;;;4947415;28;19977;-82
2021/01/29 12:26:34;;;;;;;;;;;0.70;99.90;;;;;;4932589;29;19915;-82
2021/01/29 12:29:11;;;;;;;;;;;0.80;99.90;;;;;;4949305;28;19965;-83
2021/01/29 12:31:46;;;;;;;;;;;0.70;99.90;;;;;;4980381;28;19901;-83
2021/01/29 12:34:30;;;;;;;;;;;0.80;99.90;;;;;;5007596;28;19987;-84
2021/01/29 12:37:02;;;;;;;;;;;0.90;99.90;;;;;;4982456;28;19925;-83
2021/01/29 12:39:37;;;;;;;;;;;0.80;99.90;;;;;;4974126;28;19937;-84
2021/01/29 12:42:06;;;;;;;;;;;0.90;99.90;;;;;;4979045;28;20008;-83
2021/01/29 12:44:37;;;;;;;;;;;0.80;99.90;;;;;;4956012;28;20303;-83
2021/01/29 12:47:11;;;;;;;;;;;0.80;99.90;;;;;;4955955;28;20510;-83
2021/01/29 12:49:41;;;;;;;;;;;0.90;99.90;;;;;;4969451;28;19982;-83
2021/01/29 12:52:19;;;;;;;;;;;0.80;99.90;;;;;;4958204;28;19914;-83
2021/01/29 12:55:04;;;;;;;;;;;0.90;99.90;;;;;;4970620;28;20369;-82
2021/01/29 12:57:30;;;;;;;;;;;0.80;99.90;;;;;;4956270;28;20023;-83
2021/01/29 13:00:04;;;;;;;;;;;0.80;99.90;;;;;;4973700;28;19913;-83
2021/01/29 13:02:33;;;;;;;;;;;0.80;99.90;;;;;;4967091;28;19922;-83
2021/01/29 13:05:05;;;;;;;;;;;0.90;99.90;;;;;;4954328;28;19914;-83
2021/01/29 13:07:32;;;;;;;;;;;0.90;99.90;;;;;;4973594;28;20316;-82
2021/01/29 13:09:57;;;;;;;;;;;0.90;99.90;;;;;;4969397;28;20375;-82
2021/01/29 13:12:38;;;;;;;;;;;0.80;99.90;;;;;;4953970;28;19964;-82
2021/01/29 13:15:18;;;;;;;;;;;0.80;99.90;;;;;;4961986;28;19937;-83
2021/01/29 13:17:47;;;;;;;;;;;0.80;99.90;;;;;;4979911;28;19921;-82
2021/01/29 13:20:16;;;;;;;;;;;0.90;99.90;;;;;;4984523;28;19972;-82
2021/01/29 13:22:41;;;;;;;;;;;0.80;99.90;;;;;;4979053;28;19960;-84
2021/01/29 13:25:13;;;;;;;;;;;0.80;99.90;;;;;;4976756;28;19914;-82
2021/01/29 13:27:48;;;;;;;;;;;0.70;99.90;;;;;;4981946;28;19922;-82
2021/01/29 13:30:33;;;;;;;;;;;0.60;99.90;;;;;;4985215;28;20416;-82
2021/01/29 13:33:01;;;;;;;;;;;0.60;99.90;;;;;;4975792;28;19937;-82
2021/01/29 13:35:32;;;;;;;;;;;0.70;99.90;;;;;;4973271;28;20383;-83
2021/01/29 13:38:05;;;;;;;;;;;0.70;99.90;;;;;;4969758;28;19936;-82
2021/01/29 13:40:31;;;;;;;;;;;0.70;99.90;;;;;;4973652;28;19914;-83
2021/01/29 13:42:57;;;;;;;;;;;0.70;99.90;;;;;;4972520;28;19941;-83
2021/01/29 13:45:22;;;;;;;;;;;0.60;99.90;;;;;;4973556;28;19948;-82
2021/01/29 13:47:49;;;;;;;;;;;0.60;99.90;;;;;;4973464;28;20371;-82
2021/01/29 13:50:15;;;;;;;;;;;0.60;99.90;;;;;;4990489;28;20008;-83
2021/01/29 13:52:52;;;;;;;;;;;0.50;99.90;;;;;;4979459;28;20255;-83
2021/01/29 13:55:17;;;;;;;;;;;0.60;99.90;;;;;;4975098;28;19964;-83
2021/01/29 13:57:46;;;;;;;;;;;0.60;99.90;;;;;;4995288;28;20260;-83
2021/01/29 14:00:14;;;;;;;;;;;0.60;99.90;;;;;;4971630;28;20071;-83
2021/01/29 14:02:59;;;;;;;;;;;0.60;99.90;;;;;;4979381;28;19929;-82
2021/01/29 14:05:28;;;;;;;;;;;0.60;99.90;;;;;;4957470;28;20020;-83
2021/01/29 14:07:56;;;;;;;;;;;0.60;99.90;;;;;;4947343;28;19922;-83
2021/01/29 14:10:24;;;;;;;;;;;0.60;99.90;;;;;;4961614;28;20008;-83
2021/01/29 14:13:08;;;;;;;;;;;0.60;99.90;;;;;;4964920;28;20283;-83
2021/01/29 14:15:43;;;;;;;;;;;0.60;99.90;;;;;;4944824;28;20291;-83
2021/01/29 14:18:27;;;;;;;;;;;0.60;99.90;;;;;;4967196;28;19913;-83
2021/01/29 14:21:08;;;;;;;;;;;0.60;99.90;;;;;;4948976;28;19918;-83
2021/01/29 14:23:48;;;;;;;;;;;0.60;99.90;;;;;;4958605;28;19914;-82
2021/01/29 14:26:16;;;;;;;;;;;0.60;99.90;;;;;;4959051;28;19922;-83
2021/01/29 14:28:42;;;;;;;;;;;0.50;99.90;;;;;;4950940;28;20407;-83
2021/01/29 14:31:19;;;;;;;;;;;0.50;99.90;;;;;;4946658;28;19921;-83
2021/01/29 14:33:51;;;;;;;;;;;0.50;99.90;;;;;;4975035;28;19913;-83
2021/01/29 14:36:18;;;;;;;;;;;0.50;99.90;;;;;;4973736;28;20008;-82
2021/01/29 14:38:57;;;;;;;;;;;0.50;99.90;;;;;;4974363;28;19914;-83
2021/01/29 14:41:28;;;;;;;;;;;0.50;99.90;;;;;;4994925;28;19918;-83
2021/01/29 14:43:55;;;;;;;;;;;0.50;99.90;;;;;;4970334;28;19917;-83
2021/01/29 14:46:28;;;;;;;;;;;0.50;99.90;;;;;;4996721;28;20015;-83
2021/01/29 14:48:57;;;;;;;;;;;0.50;99.90;;;;;;4978912;28;19922;-82
2021/01/29 14:51:35;;;;;;;;;;;0.50;99.90;;;;;;4978650;28;20278;-83
2021/01/29 14:54:08;;;;;;;;;;;0.40;99.90;;;;;;4983773;28;20007;-83
2021/01/29 14:56:39;;;;;;;;;;;0.50;99.90;;;;;;4970446;28;19937;-83
2021/01/29 14:59:20;;;;;;;;;;;0.50;99.90;;;;;;4976950;28;19917;-83
2021/01/29 15:01:49;;;;;;;;;;;0.40;99.90;;;;;;4985171;28;20343;-83
2021/01/29 15:04:22;;;;;;;;;;;0.40;99.90;;;;;;4966282;28;19972;-83
2021/01/29 15:06:53;;;;;;;;;;;0.40;99.90;;;;;;4966969;28;19957;-84
2021/01/29 15:09:22;;;;;;;;;;;0.40;99.90;;;;;;4986247;28;20248;-83